ADDS METAR Data INFO
IDs: Format: Raw Decoded Include TAF

Data at: 1840 UTC 17 Oct 2017

KDXR 171753Z 26006KT 10SM CLR 14/M01 A3028 RMK AO2 SLP255 T01391011 10139 20022 58016
KDXR 171653Z 00000KT 10SM CLR 12/M01 A3030 RMK AO2 SLP262 T01221011
KDXR 171553Z 33004KT 10SM CLR 11/M01 A3032 RMK AO2 SLP269 T01061006
KDXR 171453Z 07006KT 10SM CLR 09/M01 A3033 RMK AO2 SLP272 T00941011 58000
KDXR 171353Z 05008KT 10SM CLR 08/M01 A3034 RMK AO2 SLP276 T00831011
KDXR 171253Z 01009KT 10SM CLR 07/00 A3035 RMK AO2 SLP278 T00670000
KDXR 171153Z 00000KT 10SM CLR 02/01 A3033 RMK AO2 SLP273 T00220006 10044 20006 51021
KDXR 171053Z AUTO 00000KT 10SM CLR 01/00 A3032 RMK AO2 SLP268 T00110000
KDXR 170953Z AUTO 00000KT 10SM CLR 02/00 A3029 RMK AO2 SLP259 T00220000
KDXR 170853Z AUTO 00000KT 10SM CLR 02/00 A3027 RMK AO2 SLP250 T00170000 53011
KDXR 170753Z AUTO 00000KT 10SM CLR 02/01 A3025 RMK AO2 SLP245 T00170006
KDXR 170653Z AUTO 00000KT 10SM CLR 03/01 A3025 RMK AO2 SLP243 T00280006
KDXR 170553Z AUTO 00000KT 10SM CLR 04/01 A3023 RMK AO2 SLP239 T00440011 10089 20039 53011
KDXR 170453Z AUTO 33004KT 10SM CLR 05/01 A3022 RMK AO2 SLP234 T00500011 402000044
KDXR 170353Z AUTO 00000KT 10SM CLR 06/01 A3021 RMK AO2 SLP231 T00560011
KDXR 170253Z AUTO VRB05KT 10SM CLR 07/01 A3020 RMK AO2 SLP227 T00720011 51020
KDXR 170153Z 32006KT 10SM CLR 08/02 A3019 RMK AO2 SLP223 T00780017
KDXR 170053Z 34009KT 10SM FEW044 08/02 A3016 RMK AO2 SLP213 T00830022
KDXR 162353Z 35004KT 10SM CLR 09/02 A3014 RMK AO2 SLP207 T00890022 10133 20089 53026
KDXR 162253Z 35005KT 10SM CLR 09/03 A3011 RMK AO2 SLP196 T00940033
KDXR 162153Z 34007KT 10SM CLR 11/03 A3009 RMK AO2 SLP188 T01110033
KDXR 162053Z 34007KT 10SM CLR 12/04 A3006 RMK AO2 SLP179 T01170039 52015
KDXR 161953Z 35010G17KT 10SM FEW032 12/04 A3005 RMK AO2 SLP176 T01170039
KDXR 161857Z 35013G19KT 10SM FEW032 13/04 A3003 RMK AO2 T01280044
KDXR 161853Z 32013G19KT 10SM CLR 12/04 A3003 RMK AO2 SLP167 T01220039
KDXR 161753Z 36013KT 10SM FEW032 12/04 A3002 RMK AO2 SLP163 T01170044 10139 20117 50004
KDXR 161704Z 32009KT 10SM SCT030 12/05 A3002 RMK AO2 T01220050
KDXR 161653Z 32011G18KT 10SM BKN030 12/05 A3003 RMK AO2 SLP166 T01220050
KDXR 161553Z 33008KT 10SM BKN030 13/06 A3002 RMK AO2 SLP164 T01280056
KDXR 161453Z 33012G18KT 10SM BKN028 12/06 A3001 RMK AO2 SLP159 T01220061 51017 $
KDXR 161353Z 34007KT 300V360 10SM BKN029 13/07 A3000 RMK AO2 SLP156 T01280067 $
KDXR 161253Z 35007KT 10SM BKN029 13/07 A2998 RMK AO2 SLP150 T01280067 $
KDXR 161218Z 35008KT 10SM BKN030 13/08 A2994 RMK AO2 T01330083 $
KDXR 161153Z 33011G16KT 10SM OVC028 14/09 A2996 RMK AO2 PRESRR SLP142 60002 70012 T01390089 10189 20139 53034 $
KDXR 161118Z 34010G14KT 10SM BKN025 BKN032 BKN041 14/10 A2991 RMK AO2 T01440100 $
KDXR 161053Z AUTO VRB04KT 10SM SCT037 BKN070 BKN120 15/09 A2990 RMK AO2 SLP122 T01500094 $
KDXR 160953Z AUTO VRB05KT 10SM FEW120 16/11 A2987 RMK AO2 SLP111 T01560106 $
KDXR 160853Z AUTO 30006KT 10SM OVC110 16/13 A2986 RMK AO2 RAE37 SLP106 P0000 60002 T01610133 53008 $
KDXR 160753Z AUTO 25004KT 10SM -RA FEW060 BKN075 OVC090 16/13 A2984 RMK AO2 RAB03 SLP101 P0001 T01610133 $
KDXR 160653Z AUTO 27007KT 10SM SCT050 OVC075 17/14 A2983 RMK AO2 RAB0558E38 SLP099 P0001 T01720144 $